Time;durP1;ratioP1;P1;durP2;ratioP2;P2;SDS_P1;SDS_P2;PMS_P1;PMS_P2;Temp;Humidity;BMP_temperature;BMP_pressure;BME280_temperature;BME280_humidity;BME280_pressure;Samples;Min_cycle;Max_cycle;Signal;HPM_P1;HPM_P2
2022/10/19 00:00:28;;;;;;;0.17;0.17;;;;;;;;;;1808273;78;26776;-46
2022/10/19 00:02:55;;;;;;;0.10;0.10;;;;;;;;;;1811209;78;26661;-43
2022/10/19 00:05:23;;;;;;;0.30;0.10;;;;;;;;;;1800019;77;26667;-53
2022/10/19 00:07:50;;;;;;;0.10;0.10;;;;;;;;;;1812230;78;26271;-51
2022/10/19 00:10:17;;;;;;;0.10;0.10;;;;;;;;;;1813905;78;26356;-46
2022/10/19 00:12:45;;;;;;;0.40;0.17;;;;;;;;;;1810561;78;26696;-43
2022/10/19 00:15:12;;;;;;;0.10;0.10;;;;;;;;;;1810207;78;26689;-48
2022/10/19 00:17:39;;;;;;;0.10;0.10;;;;;;;;;;1810601;78;26746;-42
2022/10/19 00:20:07;;;;;;;0.98;0.13;;;;;;;;;;1810344;77;26760;-46
2022/10/19 00:22:34;;;;;;;0.10;0.10;;;;;;;;;;1814266;78;26287;-44
2022/10/19 00:25:01;;;;;;;0.10;0.10;;;;;;;;;;1810902;78;26832;-41
2022/10/19 00:27:29;;;;;;;0.00;0.00;;;;;;;;;;1810379;78;26286;-47
2022/10/19 00:29:56;;;;;;;0.17;0.17;;;;;;;;;;1807897;78;26330;-43
2022/10/19 00:32:23;;;;;;;0.10;0.10;;;;;;;;;;1815281;78;26323;-48
2022/10/19 00:34:50;;;;;;;0.20;0.10;;;;;;;;;;1810929;78;26402;-44
2022/10/19 00:37:18;;;;;;;0.33;0.23;;;;;;;;;;1810897;77;26280;-43
2022/10/19 00:39:45;;;;;;;0.10;0.10;;;;;;;;;;1811197;78;26283;-49
2022/10/19 00:42:12;;;;;;;0.20;0.20;;;;;;;;;;1810425;78;26839;-50
2022/10/19 00:44:41;;;;;;;0.20;0.20;;;;;;;;;;1811355;78;26294;-48
2022/10/19 00:47:08;;;;;;;0.10;0.10;;;;;;;;;;1811033;78;26345;-52
2022/10/19 00:49:37;;;;;;;0.10;0.10;;;;;;;;;;1810709;78;26232;-46
2022/10/19 00:52:06;;;;;;;0.20;0.20;;;;;;;;;;1809987;78;26260;-45
2022/10/19 00:54:35;;;;;;;0.10;0.10;;;;;;;;;;1806602;77;26299;-48
2022/10/19 00:57:03;;;;;;;0.10;0.10;;;;;;;;;;1811256;78;26805;-52
2022/10/19 00:59:31;;;;;;;0.10;0.10;;;;;;;;;;1813829;77;26259;-45
2022/10/19 01:02:00;;;;;;;0.10;0.10;;;;;;;;;;1811097;78;26288;-43
2022/10/19 01:04:28;;;;;;;0.10;0.10;;;;;;;;;;1811350;77;26779;-52
2022/10/19 01:06:56;;;;;;;0.70;0.15;;;;;;;;;;1810809;78;26261;-45
2022/10/19 01:09:23;;;;;;;0.00;0.00;;;;;;;;;;1809913;78;26291;-50
2022/10/19 01:11:52;;;;;;;0.03;0.03;;;;;;;;;;1811088;78;26240;-48
2022/10/19 01:14:30;;;;;;;0.10;0.10;;;;;;;;;;1811056;78;26283;-46
2022/10/19 01:17:07;;;;;;;0.10;0.10;;;;;;;;;;1807899;78;26673;-45
2022/10/19 01:19:36;;;;;;;0.10;0.10;;;;;;;;;;1810239;78;26342;-45
2022/10/19 01:22:14;;;;;;;0.10;0.10;;;;;;;;;;1810889;78;26307;-47
2022/10/19 01:24:46;;;;;;;0.10;0.10;;;;;;;;;;1810375;78;26840;-43
2022/10/19 01:27:24;;;;;;;0.00;0.00;;;;;;;;;;1816146;77;27233;-48
2022/10/19 01:29:59;;;;;;;0.10;0.10;;;;;;;;;;1816071;78;26260;-46
2022/10/19 01:32:30;;;;;;;0.08;0.08;;;;;;;;;;1813432;78;26216;-43
2022/10/19 01:35:11;;;;;;;0.00;0.00;;;;;;;;;;1810534;78;26275;-42
2022/10/19 01:37:40;;;;;;;0.10;0.10;;;;;;;;;;1809165;77;26243;-43
2022/10/19 01:40:09;;;;;;;0.15;0.15;;;;;;;;;;1810237;78;26748;-44
2022/10/19 01:42:43;;;;;;;0.00;0.00;;;;;;;;;;1809197;77;26270;-43
2022/10/19 01:45:15;;;;;;;0.10;0.10;;;;;;;;;;1813365;78;26709;-44
2022/10/19 01:47:49;;;;;;;0.55;0.10;;;;;;;;;;1813620;78;26756;-47
2022/10/19 01:50:30;;;;;;;0.20;0.20;;;;;;;;;;1811298;78;26204;-43
2022/10/19 01:52:58;;;;;;;0.10;0.10;;;;;;;;;;1810055;78;26216;-44
2022/10/19 01:55:26;;;;;;;0.03;0.03;;;;;;;;;;1813439;78;26688;-45
2022/10/19 01:57:55;;;;;;;0.00;0.00;;;;;;;;;;1809730;78;26275;-43
2022/10/19 02:00:23;;;;;;;0.03;0.03;;;;;;;;;;1813469;78;26298;-47
2022/10/19 02:02:52;;;;;;;0.10;0.10;;;;;;;;;;1815356;77;26803;-45
2022/10/19 02:05:20;;;;;;;0.10;0.10;;;;;;;;;;1814202;78;26638;-43
2022/10/19 02:07:49;;;;;;;0.08;0.08;;;;;;;;;;1816471;78;26375;-46
2022/10/19 02:10:17;;;;;;;0.10;0.10;;;;;;;;;;1812933;78;26271;-46
2022/10/19 02:12:45;;;;;;;1.17;0.10;;;;;;;;;;1815657;78;26271;-44
2022/10/19 02:15:14;;;;;;;0.03;0.03;;;;;;;;;;1815284;78;26224;-50
2022/10/19 02:17:43;;;;;;;0.10;0.10;;;;;;;;;;1814671;78;26748;-47
2022/10/19 02:20:10;;;;;;;0.00;0.00;;;;;;;;;;1818523;77;26780;-45
2022/10/19 02:22:38;;;;;;;0.57;0.10;;;;;;;;;;1815531;78;26271;-43
2022/10/19 02:25:06;;;;;;;0.35;0.10;;;;;;;;;;1812906;78;26255;-43
2022/10/19 02:27:34;;;;;;;0.10;0.10;;;;;;;;;;1812451;78;26346;-46
2022/10/19 02:30:01;;;;;;;0.20;0.20;;;;;;;;;;1810316;78;26264;-43
2022/10/19 02:32:29;;;;;;;0.03;0.03;;;;;;;;;;1811401;78;26303;-46
2022/10/19 02:34:56;;;;;;;0.00;0.00;;;;;;;;;;1810654;78;26719;-43
2022/10/19 02:37:24;;;;;;;0.10;0.10;;;;;;;;;;1811085;77;26295;-45
2022/10/19 02:39:51;;;;;;;0.00;0.00;;;;;;;;;;1810278;78;26263;-47
2022/10/19 02:42:29;;;;;;;0.10;0.10;;;;;;;;;;1808332;77;26271;-52
2022/10/19 02:45:01;;;;;;;0.10;0.10;;;;;;;;;;1804178;77;26304;-44
2022/10/19 02:47:30;;;;;;;0.17;0.17;;;;;;;;;;1783765;78;27776;-50
2022/10/19 02:49:57;;;;;;;0.05;0.05;;;;;;;;;;1801831;78;26673;-46
2022/10/19 02:52:24;;;;;;;0.10;0.10;;;;;;;;;;1801350;78;26744;-48
2022/10/19 02:54:51;;;;;;;0.00;0.00;;;;;;;;;;1801172;78;26319;-50
2022/10/19 02:57:23;;;;;;;0.10;0.10;;;;;;;;;;1803000;78;26254;-42
2022/10/19 02:59:50;;;;;;;0.10;0.10;;;;;;;;;;1801273;78;26340;-46
2022/10/19 03:02:19;;;;;;;0.00;0.00;;;;;;;;;;1801350;78;26212;-44
2022/10/19 03:04:46;;;;;;;0.00;0.00;;;;;;;;;;1796405;78;26267;-44
2022/10/19 03:07:15;;;;;;;0.08;0.08;;;;;;;;;;1801013;78;26554;-49
2022/10/19 03:09:43;;;;;;;0.28;0.10;;;;;;;;;;1802274;78;26291;-49
2022/10/19 03:12:10;;;;;;;0.10;0.10;;;;;;;;;;1792895;78;26554;-44
2022/10/19 03:14:38;;;;;;;0.00;0.00;;;;;;;;;;1800602;78;26353;-47
2022/10/19 03:17:05;;;;;;;0.10;0.10;;;;;;;;;;1807720;78;26311;-44
2022/10/19 03:19:34;;;;;;;0.20;0.10;;;;;;;;;;1791317;79;26580;-45
2022/10/19 03:22:01;;;;;;;0.00;0.00;;;;;;;;;;1797184;79;26594;-42
2022/10/19 03:24:29;;;;;;;0.20;0.10;;;;;;;;;;1795987;79;26313;-47
2022/10/19 03:26:57;;;;;;;0.00;0.00;;;;;;;;;;1799312;78;26454;-45
2022/10/19 03:29:24;;;;;;;0.00;0.00;;;;;;;;;;1806101;78;26282;-50
2022/10/19 03:31:51;;;;;;;0.20;0.20;;;;;;;;;;1809394;78;26604;-46
2022/10/19 03:34:19;;;;;;;0.00;0.00;;;;;;;;;;1801465;78;26281;-47
2022/10/19 03:36:46;;;;;;;0.00;0.00;;;;;;;;;;1808816;77;26321;-47
2022/10/19 03:39:14;;;;;;;0.10;0.10;;;;;;;;;;1809594;78;26322;-46
2022/10/19 03:41:42;;;;;;;0.05;0.05;;;;;;;;;;1803560;78;27351;-47
2022/10/19 03:44:10;;;;;;;0.00;0.00;;;;;;;;;;1803682;78;26330;-43
2022/10/19 03:46:37;;;;;;;0.10;0.10;;;;;;;;;;1812462;78;26694;-43
2022/10/19 03:49:05;;;;;;;0.00;0.00;;;;;;;;;;1807036;77;26378;-45
2022/10/19 03:51:32;;;;;;;1.75;0.13;;;;;;;;;;1826146;78;26260;-48
2022/10/19 03:54:04;;;;;;;0.10;0.10;;;;;;;;;;1791225;78;26294;-45
2022/10/19 03:56:32;;;;;;;0.10;0.10;;;;;;;;;;1805993;78;26252;-46
2022/10/19 03:59:00;;;;;;;0.10;0.10;;;;;;;;;;1803718;78;26369;-50
2022/10/19 04:01:29;;;;;;;0.10;0.10;;;;;;;;;;1808462;78;26248;-45
2022/10/19 04:03:58;;;;;;;0.00;0.00;;;;;;;;;;1813139;77;26731;-42
2022/10/19 04:06:27;;;;;;;0.10;0.10;;;;;;;;;;1814185;78;27478;-49
2022/10/19 04:08:54;;;;;;;0.10;0.10;;;;;;;;;;1812529;78;26345;-47
2022/10/19 04:11:23;;;;;;;0.10;0.10;;;;;;;;;;1807459;78;26235;-42
2022/10/19 04:13:51;;;;;;;0.08;0.08;;;;;;;;;;1809840;78;26267;-44
2022/10/19 04:16:19;;;;;;;0.00;0.00;;;;;;;;;;1809280;78;26263;-46
2022/10/19 04:18:47;;;;;;;0.03;0.03;;;;;;;;;;1810037;78;26783;-46
2022/10/19 04:21:18;;;;;;;0.10;0.10;;;;;;;;;;1808833;77;26272;-56
2022/10/19 04:23:45;;;;;;;0.03;0.03;;;;;;;;;;1801499;78;26573;-49
2022/10/19 04:26:13;;;;;;;0.10;0.10;;;;;;;;;;1820829;77;26319;-47
2022/10/19 04:28:40;;;;;;;0.08;0.03;;;;;;;;;;1805711;78;26268;-43
2022/10/19 04:31:07;;;;;;;0.10;0.10;;;;;;;;;;1802819;78;26276;-43
2022/10/19 04:33:34;;;;;;;0.10;0.10;;;;;;;;;;1800349;78;26256;-43
2022/10/19 04:36:03;;;;;;;0.15;0.15;;;;;;;;;;1800926;79;26718;-48
2022/10/19 04:38:31;;;;;;;0.95;0.10;;;;;;;;;;1801848;78;26318;-46
2022/10/19 04:41:05;;;;;;;0.10;0.10;;;;;;;;;;1818391;78;27426;-47
2022/10/19 04:43:33;;;;;;;0.20;0.20;;;;;;;;;;1817304;77;25701;-45
2022/10/19 04:46:04;;;;;;;0.20;0.17;;;;;;;;;;1810628;78;26228;-42
2022/10/19 04:48:31;;;;;;;0.20;0.20;;;;;;;;;;1778059;79;26322;-53
2022/10/19 04:50:59;;;;;;;0.30;0.30;;;;;;;;;;1785580;78;26353;-46
2022/10/19 04:53:26;;;;;;;1.77;0.20;;;;;;;;;;1802576;77;26314;-50
2022/10/19 04:55:53;;;;;;;0.53;0.30;;;;;;;;;;1806479;79;27259;-49
2022/10/19 04:58:20;;;;;;;0.35;0.25;;;;;;;;;;1817700;78;26283;-47
2022/10/19 05:00:48;;;;;;;0.50;0.30;;;;;;;;;;1816043;77;26343;-48
2022/10/19 05:03:16;;;;;;;0.40;0.35;;;;;;;;;;1836440;77;26336;-45
2022/10/19 05:05:43;;;;;;;0.55;0.30;;;;;;;;;;1793036;77;26290;-43
2022/10/19 05:08:10;;;;;;;0.30;0.30;;;;;;;;;;1791950;78;26274;-44
2022/10/19 05:10:38;;;;;;;0.20;0.20;;;;;;;;;;1778375;78;26274;-52
2022/10/19 05:13:05;;;;;;;0.72;0.30;;;;;;;;;;1819750;78;26254;-43
2022/10/19 05:15:32;;;;;;;0.55;0.23;;;;;;;;;;1804716;77;26263;-50
2022/10/19 05:18:00;;;;;;;0.20;0.15;;;;;;;;;;1778635;78;26324;-50
2022/10/19 05:20:27;;;;;;;1.50;0.50;;;;;;;;;;1793716;79;26334;-49
2022/10/19 05:22:54;;;;;;;0.30;0.30;;;;;;;;;;1821675;78;26274;-44
2022/10/19 05:25:22;;;;;;;1.40;0.45;;;;;;;;;;1793439;78;26259;-49
2022/10/19 05:27:53;;;;;;;4.85;0.53;;;;;;;;;;1796159;77;26381;-51
2022/10/19 05:30:20;;;;;;;0.30;0.30;;;;;;;;;;1799918;79;26747;-44
2022/10/19 05:32:48;;;;;;;0.57;0.45;;;;;;;;;;1789509;78;26792;-44
2022/10/19 05:35:15;;;;;;;0.30;0.30;;;;;;;;;;1797427;78;26253;-46
2022/10/19 05:37:42;;;;;;;0.20;0.20;;;;;;;;;;1814079;78;26283;-45
2022/10/19 05:40:10;;;;;;;3.65;0.30;;;;;;;;;;1771093;78;26274;-42
2022/10/19 05:42:37;;;;;;;0.82;0.25;;;;;;;;;;1774096;78;26301;-56
2022/10/19 05:45:05;;;;;;;1.80;0.35;;;;;;;;;;1775478;78;26345;-46
2022/10/19 05:47:34;;;;;;;0.45;0.20;;;;;;;;;;1793007;78;26208;-44
2022/10/19 05:50:01;;;;;;;7.33;0.50;;;;;;;;;;1801429;78;26349;-45
2022/10/19 05:52:28;;;;;;;2.25;0.40;;;;;;;;;;1799507;79;26275;-44
2022/10/19 05:54:57;;;;;;;2.15;0.33;;;;;;;;;;1796953;78;26260;-46
2022/10/19 05:57:24;;;;;;;0.30;0.30;;;;;;;;;;1800784;78;26337;-47
2022/10/19 05:59:55;;;;;;;1.17;0.30;;;;;;;;;;1799826;78;26891;-45
2022/10/19 06:02:20;;;;;;;2.12;0.25;;;;;;;;;;1797790;78;26336;-44
2022/10/19 06:04:48;;;;;;;1.17;0.20;;;;;;;;;;1803534;78;26259;-45
2022/10/19 06:07:15;;;;;;;0.55;0.30;;;;;;;;;;1802663;78;26252;-47
2022/10/19 06:09:42;;;;;;;1.20;0.28;;;;;;;;;;1803852;78;26288;-49
2022/10/19 06:12:10;;;;;;;0.33;0.30;;;;;;;;;;1802469;78;26248;-46
2022/10/19 06:14:37;;;;;;;0.95;0.33;;;;;;;;;;1801894;78;26780;-46
2022/10/19 06:17:05;;;;;;;1.30;0.30;;;;;;;;;;1793068;78;26786;-48
2022/10/19 06:19:32;;;;;;;0.20;0.20;;;;;;;;;;1818824;78;26342;-45
2022/10/19 06:22:00;;;;;;;0.20;0.17;;;;;;;;;;1803004;78;26361;-52
2022/10/19 06:24:27;;;;;;;2.22;0.17;;;;;;;;;;1804331;79;26374;-50
2022/10/19 06:26:54;;;;;;;0.60;0.10;;;;;;;;;;1803896;78;26271;-55
2022/10/19 06:29:21;;;;;;;0.57;0.20;;;;;;;;;;1803518;78;26319;-49
2022/10/19 06:31:49;;;;;;;0.20;0.20;;;;;;;;;;1803092;78;26675;-53
2022/10/19 06:34:16;;;;;;;0.13;0.13;;;;;;;;;;1802480;78;26283;-51
2022/10/19 06:36:43;;;;;;;0.10;0.10;;;;;;;;;;1804106;78;26710;-49
2022/10/19 06:39:11;;;;;;;0.85;0.20;;;;;;;;;;1804522;78;27114;-47
2022/10/19 06:41:38;;;;;;;0.10;0.10;;;;;;;;;;1769120;78;26262;-46
2022/10/19 06:44:05;;;;;;;0.55;0.30;;;;;;;;;;1771234;78;26258;-44
2022/10/19 06:46:32;;;;;;;0.33;0.20;;;;;;;;;;1768858;78;26270;-46
2022/10/19 06:49:01;;;;;;;0.20;0.20;;;;;;;;;;1800707;78;26323;-49
2022/10/19 06:51:29;;;;;;;0.10;0.10;;;;;;;;;;1799546;78;26276;-49
2022/10/19 06:53:56;;;;;;;0.40;0.40;;;;;;;;;;1790167;78;26355;-47
2022/10/19 06:56:24;;;;;;;0.78;0.28;;;;;;;;;;1799936;78;26330;-47
2022/10/19 06:58:51;;;;;;;0.20;0.20;;;;;;;;;;1803365;78;26279;-49
2022/10/19 07:01:19;;;;;;;0.33;0.33;;;;;;;;;;1803003;78;26741;-48
2022/10/19 07:03:46;;;;;;;0.20;0.20;;;;;;;;;;1794864;78;26702;-44
2022/10/19 07:06:13;;;;;;;0.20;0.20;;;;;;;;;;1771925;78;27125;-45
2022/10/19 07:08:42;;;;;;;7.35;0.93;;;;;;;;;;1777788;78;26220;-41
2022/10/19 07:11:10;;;;;;;7.90;1.32;;;;;;;;;;1805742;78;26280;-42
2022/10/19 07:13:38;;;;;;;4.87;0.80;;;;;;;;;;1796647;78;26304;-42
2022/10/19 07:16:10;;;;;;;16.55;0.70;;;;;;;;;;1805566;79;26373;-41
2022/10/19 07:18:39;;;;;;;7.05;0.85;;;;;;;;;;1805772;78;26281;-41
2022/10/19 07:21:08;;;;;;;7.40;0.70;;;;;;;;;;1801597;78;26267;-42
2022/10/19 07:23:36;;;;;;;4.20;0.40;;;;;;;;;;1800177;79;26330;-41
2022/10/19 07:26:05;;;;;;;4.80;0.40;;;;;;;;;;1830032;78;27443;-42
2022/10/19 07:28:34;;;;;;;3.58;0.57;;;;;;;;;;1817604;78;26220;-41
2022/10/19 07:31:03;;;;;;;4.55;0.47;;;;;;;;;;1828147;78;26666;-46
2022/10/19 07:33:30;;;;;;;2.67;0.40;;;;;;;;;;1827865;78;26375;-42
2022/10/19 07:36:01;;;;;;;2.37;0.40;;;;;;;;;;1813774;78;26352;-42
2022/10/19 07:38:30;;;;;;;2.08;0.40;;;;;;;;;;1807039;78;26330;-42
2022/10/19 07:41:01;;;;;;;2.87;0.35;;;;;;;;;;1786297;79;26310;-51
2022/10/19 07:43:28;;;;;;;1.87;0.60;;;;;;;;;;1795246;79;26227;-42
2022/10/19 07:46:03;;;;;;;2.85;0.40;;;;;;;;;;1793019;79;26326;-46
2022/10/19 07:48:30;;;;;;;3.17;0.60;;;;;;;;;;1803623;78;26281;-43
2022/10/19 07:50:58;;;;;;;1.37;0.40;;;;;;;;;;1789171;79;26333;-43
2022/10/19 07:53:25;;;;;;;3.37;0.50;;;;;;;;;;1805795;78;26252;-43
2022/10/19 07:55:52;;;;;;;1.02;0.40;;;;;;;;;;1799294;77;26233;-46
2022/10/19 07:58:20;;;;;;;0.35;0.35;;;;;;;;;;1799901;77;26321;-41
2022/10/19 08:00:47;;;;;;;0.65;0.37;;;;;;;;;;1820177;78;26193;-42
2022/10/19 08:03:14;;;;;;;1.05;0.60;;;;;;;;;;1814001;78;26297;-44
2022/10/19 08:05:41;;;;;;;0.60;0.45;;;;;;;;;;1809228;78;26283;-53
2022/10/19 08:08:09;;;;;;;1.17;0.35;;;;;;;;;;1811901;78;26684;-43
2022/10/19 08:10:36;;;;;;;2.45;0.30;;;;;;;;;;1811493;78;26842;-44
2022/10/19 08:13:03;;;;;;;1.87;0.40;;;;;;;;;;1811275;78;26689;-41
2022/10/19 08:15:31;;;;;;;1.35;0.40;;;;;;;;;;1812754;78;26646;-41
2022/10/19 08:17:59;;;;;;;0.75;0.30;;;;;;;;;;1832978;78;26272;-42
2022/10/19 08:20:27;;;;;;;3.27;0.37;;;;;;;;;;1812192;78;26290;-42
2022/10/19 08:22:54;;;;;;;0.40;0.30;;;;;;;;;;1819704;78;26246;-41
2022/10/19 08:25:21;;;;;;;0.23;0.23;;;;;;;;;;1820880;78;26723;-42
2022/10/19 08:27:48;;;;;;;0.42;0.30;;;;;;;;;;1824219;78;26799;-46
2022/10/19 08:30:16;;;;;;;0.62;0.40;;;;;;;;;;1812119;77;27016;-41
2022/10/19 08:32:43;;;;;;;0.40;0.20;;;;;;;;;;1812105;78;26299;-46
2022/10/19 08:35:10;;;;;;;1.42;0.30;;;;;;;;;;1813508;78;26342;-41
2022/10/19 08:37:38;;;;;;;0.37;0.30;;;;;;;;;;1810154;78;26197;-42
2022/10/19 08:40:05;;;;;;;0.40;0.40;;;;;;;;;;1781377;79;26857;-45
2022/10/19 08:42:46;;;;;;;0.20;0.20;;;;;;;;;;1823526;78;26723;-42
2022/10/19 08:45:15;;;;;;;1.45;0.20;;;;;;;;;;1783574;78;26280;-43
2022/10/19 08:47:50;;;;;;;1.22;0.30;;;;;;;;;;1777911;79;26242;-41
2022/10/19 08:50:19;;;;;;;0.20;0.20;;;;;;;;;;1776017;79;26733;-42
2022/10/19 08:52:47;;;;;;;0.10;0.10;;;;;;;;;;1799710;78;26752;-42
2022/10/19 08:55:16;;;;;;;0.20;0.20;;;;;;;;;;1803936;77;26206;-42
2022/10/19 08:57:45;;;;;;;0.25;0.25;;;;;;;;;;1807778;79;26388;-44
2022/10/19 09:00:26;;;;;;;1.55;0.37;;;;;;;;;;1821363;77;26238;-41
2022/10/19 09:02:54;;;;;;;0.42;0.20;;;;;;;;;;1819230;77;26728;-48
2022/10/19 09:05:29;;;;;;;0.57;0.20;;;;;;;;;;1750711;78;26217;-49
2022/10/19 09:07:56;;;;;;;0.10;0.10;;;;;;;;;;1811906;79;26267;-46
2022/10/19 09:10:25;;;;;;;0.10;0.10;;;;;;;;;;1814790;78;26220;-48
2022/10/19 09:12:54;;;;;;;2.05;0.45;;;;;;;;;;1806550;78;26255;-46
2022/10/19 09:15:23;;;;;;;0.20;0.20;;;;;;;;;;1811641;78;26662;-41
2022/10/19 09:17:50;;;;;;;0.93;0.20;;;;;;;;;;1814214;78;26779;-44
2022/10/19 09:20:19;;;;;;;1.25;0.13;;;;;;;;;;1814273;78;26216;-43
2022/10/19 09:22:48;;;;;;;0.35;0.28;;;;;;;;;;1814312;78;26256;-42
2022/10/19 09:25:20;;;;;;;0.30;0.30;;;;;;;;;;1813445;78;26790;-43
2022/10/19 09:27:49;;;;;;;0.60;0.30;;;;;;;;;;1814357;78;26657;-42
2022/10/19 09:30:20;;;;;;;0.20;0.20;;;;;;;;;;1806229;78;26272;-43
2022/10/19 09:32:49;;;;;;;0.28;0.28;;;;;;;;;;1806106;78;26374;-43
2022/10/19 09:35:18;;;;;;;0.20;0.20;;;;;;;;;;1811835;78;26312;-44
2022/10/19 09:37:47;;;;;;;1.10;0.25;;;;;;;;;;1808415;78;26314;-42
2022/10/19 09:40:15;;;;;;;0.30;0.30;;;;;;;;;;1811147;78;26315;-42
2022/10/19 09:42:43;;;;;;;0.20;0.20;;;;;;;;;;1811768;78;26316;-42
2022/10/19 09:45:15;;;;;;;0.30;0.20;;;;;;;;;;1811358;78;26257;-42
2022/10/19 09:47:43;;;;;;;0.10;0.10;;;;;;;;;;1811780;78;26371;-49
2022/10/19 09:50:21;;;;;;;1.20;0.30;;;;;;;;;;1814056;78;26283;-42
2022/10/19 09:52:49;;;;;;;0.20;0.20;;;;;;;;;;1809710;79;26281;-44
2022/10/19 09:55:18;;;;;;;0.20;0.20;;;;;;;;;;1791304;78;26256;-42
2022/10/19 09:57:47;;;;;;;0.37;0.30;;;;;;;;;;1795415;78;26282;-46
2022/10/19 10:00:21;;;;;;;0.28;0.10;;;;;;;;;;1806209;78;27319;-42
2022/10/19 10:02:50;;;;;;;0.25;0.25;;;;;;;;;;1801632;78;26268;-47
2022/10/19 10:05:19;;;;;;;0.30;0.30;;;;;;;;;;1786516;78;26272;-45
2022/10/19 10:07:47;;;;;;;1.50;0.30;;;;;;;;;;1789564;79;26259;-45
2022/10/19 10:10:22;;;;;;;0.47;0.47;;;;;;;;;;1801149;78;26279;-43
2022/10/19 10:12:51;;;;;;;2.12;0.62;;;;;;;;;;1800494;78;26685;-46
2022/10/19 10:15:20;;;;;;;0.60;0.60;;;;;;;;;;1800648;78;26248;-43
2022/10/19 10:17:48;;;;;;;0.78;0.70;;;;;;;;;;1800946;78;26358;-49
2022/10/19 10:20:17;;;;;;;2.25;0.82;;;;;;;;;;1801739;78;26315;-50
2022/10/19 10:22:46;;;;;;;1.55;1.10;;;;;;;;;;1782416;78;26361;-43
2022/10/19 10:25:15;;;;;;;1.50;1.20;;;;;;;;;;1800397;78;26283;-47
2022/10/19 10:27:43;;;;;;;1.77;1.30;;;;;;;;;;1801259;78;26671;-55
2022/10/19 10:30:12;;;;;;;1.77;1.30;;;;;;;;;;1801207;78;26358;-48
2022/10/19 10:32:41;;;;;;;3.08;1.57;;;;;;;;;;1807200;78;26295;-46
2022/10/19 10:35:09;;;;;;;3.37;1.60;;;;;;;;;;1820847;77;26366;-50
2022/10/19 10:37:38;;;;;;;2.70;1.80;;;;;;;;;;1826915;77;26267;-47
2022/10/19 10:40:07;;;;;;;3.98;1.90;;;;;;;;;;1814615;77;26273;-48
2022/10/19 10:42:36;;;;;;;3.72;1.98;;;;;;;;;;1822758;77;26238;-44
2022/10/19 10:45:04;;;;;;;2.87;1.60;;;;;;;;;;1825795;78;26326;-45
2022/10/19 10:47:31;;;;;;;2.12;1.60;;;;;;;;;;1842288;78;26733;-46
2022/10/19 10:50:01;;;;;;;3.05;1.65;;;;;;;;;;1836633;78;26816;-45
2022/10/19 10:52:30;;;;;;;4.67;1.90;;;;;;;;;;1814250;78;26342;-45
2022/10/19 10:54:58;;;;;;;3.95;1.90;;;;;;;;;;1794016;78;26271;-43
2022/10/19 10:57:27;;;;;;;3.75;1.90;;;;;;;;;;1787009;79;26271;-43
2022/10/19 11:00:11;;;;;;;2.52;1.70;;;;;;;;;;1798426;79;26757;-50
2022/10/19 11:02:48;;;;;;;1.70;1.55;;;;;;;;;;1772684;79;26362;-44
2022/10/19 11:05:19;;;;;;;2.52;2.10;;;;;;;;;;1771737;79;26775;-49
2022/10/19 11:07:48;;;;;;;4.47;1.70;;;;;;;;;;1800206;77;26754;-45
2022/10/19 11:10:29;;;;;;;2.40;1.60;;;;;;;;;;1814281;78;26269;-42
2022/10/19 11:13:04;;;;;;;2.17;1.47;;;;;;;;;;1823331;78;26283;-42
2022/10/19 11:15:35;;;;;;;1.85;1.47;;;;;;;;;;1785482;78;26278;-43
2022/10/19 11:18:04;;;;;;;1.75;1.42;;;;;;;;;;1824697;77;26286;-41
2022/10/19 11:20:32;;;;;;;2.47;1.60;;;;;;;;;;1821134;77;26211;-44
2022/10/19 11:23:00;;;;;;;1.98;1.30;;;;;;;;;;1814726;78;26274;-42
2022/10/19 11:25:32;;;;;;;1.60;1.50;;;;;;;;;;1795636;78;26346;-44
2022/10/19 11:28:07;;;;;;;1.52;1.40;;;;;;;;;;1813941;77;26927;-41
2022/10/19 11:30:36;;;;;;;2.62;1.32;;;;;;;;;;1809616;78;26307;-46
2022/10/19 11:33:07;;;;;;;2.10;1.40;;;;;;;;;;1808934;78;26384;-43
2022/10/19 11:35:45;;;;;;;1.22;1.12;;;;;;;;;;1810420;78;26579;-46
2022/10/19 11:38:33;;;;;;;1.30;1.20;;;;;;;;;;1818234;78;26840;-42
2022/10/19 11:41:07;;;;;;;1.07;1.07;;;;;;;;;;1807175;77;26330;-46
2022/10/19 11:43:42;;;;;;;1.00;1.00;;;;;;;;;;1816957;78;26369;-44
2022/10/19 11:46:16;;;;;;;1.47;1.37;;;;;;;;;;1809835;78;26252;-42
2022/10/19 11:48:47;;;;;;;0.82;0.82;;;;;;;;;;1810267;78;26291;-42
2022/10/19 11:51:16;;;;;;;1.20;1.10;;;;;;;;;;1802755;77;26385;-44
2022/10/19 11:53:47;;;;;;;0.93;0.93;;;;;;;;;;1801368;79;26345;-53
2022/10/19 11:56:18;;;;;;;2.25;1.00;;;;;;;;;;1811062;77;26267;-45
2022/10/19 11:58:59;;;;;;;1.00;1.00;;;;;;;;;;1816961;77;26279;-49
2022/10/19 12:01:28;;;;;;;0.80;0.80;;;;;;;;;;1755618;78;26365;-47
2022/10/19 12:04:03;;;;;;;0.80;0.80;;;;;;;;;;1774283;78;26282;-45
2022/10/19 12:06:41;;;;;;;0.90;0.90;;;;;;;;;;1809924;78;26342;-48
2022/10/19 12:09:18;;;;;;;1.85;0.70;;;;;;;;;;1811315;77;26353;-47
2022/10/19 12:11:59;;;;;;;0.65;0.65;;;;;;;;;;1811110;77;26381;-53
2022/10/19 12:14:28;;;;;;;0.50;0.50;;;;;;;;;;1792619;78;26248;-45
2022/10/19 12:16:57;;;;;;;0.90;0.90;;;;;;;;;;1812091;78;26260;-45
2022/10/19 12:19:26;;;;;;;1.37;0.80;;;;;;;;;;1800779;78;26276;-48
2022/10/19 12:21:54;;;;;;;0.70;0.70;;;;;;;;;;1812464;78;26260;-45
2022/10/19 12:24:23;;;;;;;0.60;0.60;;;;;;;;;;1808253;77;26593;-48
2022/10/19 12:26:51;;;;;;;0.80;0.70;;;;;;;;;;1796329;77;26326;-47
2022/10/19 12:29:20;;;;;;;0.57;0.57;;;;;;;;;;1812843;78;26279;-49
2022/10/19 12:31:48;;;;;;;0.70;0.70;;;;;;;;;;1801787;78;26381;-45
2022/10/19 12:34:35;;;;;;;0.70;0.50;;;;;;;;;;1816630;77;26405;-49
2022/10/19 12:37:04;;;;;;;0.50;0.50;;;;;;;;;;1800558;78;26256;-47
2022/10/19 12:39:33;;;;;;;0.50;0.50;;;;;;;;;;1820295;77;26322;-54
2022/10/19 12:42:09;;;;;;;0.40;0.40;;;;;;;;;;1796281;79;26281;-42
2022/10/19 12:44:39;;;;;;;0.50;0.50;;;;;;;;;;1775503;79;27277;-42
2022/10/19 12:47:08;;;;;;;0.45;0.45;;;;;;;;;;1811231;77;26740;-44
2022/10/19 12:49:51;;;;;;;0.42;0.40;;;;;;;;;;1792402;78;26361;-43
2022/10/19 12:52:38;;;;;;;0.57;0.57;;;;;;;;;;1801551;78;26337;-43
2022/10/19 12:55:13;;;;;;;0.20;0.20;;;;;;;;;;1820105;77;26279;-42
2022/10/19 12:57:46;;;;;;;0.37;0.37;;;;;;;;;;1806279;77;26320;-58
2022/10/19 13:00:21;;;;;;;0.40;0.40;;;;;;;;;;1803660;78;26776;-44
2022/10/19 13:02:50;;;;;;;0.30;0.30;;;;;;;;;;1816235;77;26208;-42
2022/10/19 13:05:21;;;;;;;0.30;0.30;;;;;;;;;;1814017;77;26262;-43
2022/10/19 13:07:49;;;;;;;0.35;0.35;;;;;;;;;;1821968;77;26841;-44
2022/10/19 13:10:18;;;;;;;0.40;0.40;;;;;;;;;;1798046;78;26353;-43
2022/10/19 13:12:46;;;;;;;0.28;0.28;;;;;;;;;;1813537;78;26345;-47
2022/10/19 13:15:32;;;;;;;0.30;0.30;;;;;;;;;;1819038;77;26279;-46
2022/10/19 13:18:00;;;;;;;0.20;0.20;;;;;;;;;;1811028;77;26774;-42
2022/10/19 13:20:28;;;;;;;0.30;0.30;;;;;;;;;;1808112;78;26330;-43
2022/10/19 13:23:02;;;;;;;0.40;0.30;;;;;;;;;;1812342;78;26287;-44
2022/10/19 13:25:30;;;;;;;0.40;0.40;;;;;;;;;;1811437;78;26788;-45
2022/10/19 13:27:59;;;;;;;0.30;0.30;;;;;;;;;;1805929;79;26279;-44
2022/10/19 13:30:45;;;;;;;0.62;0.40;;;;;;;;;;1811815;77;26373;-42
2022/10/19 13:33:20;;;;;;;0.30;0.30;;;;;;;;;;1798240;78;26315;-42
2022/10/19 13:35:48;;;;;;;0.20;0.20;;;;;;;;;;1791772;78;26704;-61
2022/10/19 13:38:17;;;;;;;0.20;0.20;;;;;;;;;;1777204;78;26274;-48
2022/10/19 13:40:48;;;;;;;0.20;0.20;;;;;;;;;;1775099;79;26883;-49
2022/10/19 13:43:20;;;;;;;0.28;0.28;;;;;;;;;;1779899;78;26316;-46
2022/10/19 13:45:55;;;;;;;0.20;0.20;;;;;;;;;;1796985;77;26321;-51
2022/10/19 13:48:23;;;;;;;0.10;0.10;;;;;;;;;;1812440;78;26280;-43
2022/10/19 13:50:58;;;;;;;0.20;0.20;;;;;;;;;;1814539;77;26432;-48
2022/10/19 13:53:39;;;;;;;0.10;0.10;;;;;;;;;;1800651;78;26284;-49
2022/10/19 13:56:24;;;;;;;0.28;0.28;;;;;;;;;;1809893;79;26708;-44
2022/10/19 13:58:55;;;;;;;0.17;0.17;;;;;;;;;;1802995;77;26284;-43
2022/10/19 14:01:24;;;;;;;0.10;0.10;;;;;;;;;;1811324;78;26717;-43
2022/10/19 14:04:11;;;;;;;0.20;0.20;;;;;;;;;;1811417;78;26657;-47
2022/10/19 14:06:40;;;;;;;0.10;0.10;;;;;;;;;;1801830;78;26209;-42
2022/10/19 14:09:20;;;;;;;0.05;0.05;;;;;;;;;;1811312;78;26251;-42
2022/10/19 14:11:49;;;;;;;0.20;0.20;;;;;;;;;;1810969;78;26224;-47
2022/10/19 14:14:21;;;;;;;0.10;0.10;;;;;;;;;;1779172;78;26283;-43
2022/10/19 14:16:59;;;;;;;0.20;0.20;;;;;;;;;;1810002;78;26710;-44
2022/10/19 14:19:28;;;;;;;0.25;0.25;;;;;;;;;;1803801;78;26278;-46
2022/10/19 14:21:57;;;;;;;0.47;0.20;;;;;;;;;;1802015;78;26669;-44
2022/10/19 14:24:29;;;;;;;0.10;0.10;;;;;;;;;;1811607;78;26361;-43
2022/10/19 14:26:57;;;;;;;0.25;0.25;;;;;;;;;;1809897;78;26344;-45
2022/10/19 14:29:24;;;;;;;0.10;0.10;;;;;;;;;;1814989;78;26296;-43
2022/10/19 14:31:52;;;;;;;0.10;0.10;;;;;;;;;;1824520;77;26210;-43
2022/10/19 14:34:20;;;;;;;0.20;0.20;;;;;;;;;;1821495;78;26209;-44
2022/10/19 14:36:48;;;;;;;1.07;0.20;;;;;;;;;;1825546;78;26205;-44
2022/10/19 14:39:22;;;;;;;0.20;0.20;;;;;;;;;;1834463;78;26260;-45
2022/10/19 14:41:51;;;;;;;0.13;0.13;;;;;;;;;;1761369;78;26212;-47
2022/10/19 14:44:23;;;;;;;0.17;0.17;;;;;;;;;;1807011;78;26232;-45
2022/10/19 14:46:50;;;;;;;0.30;0.30;;;;;;;;;;1795805;78;26664;-45
2022/10/19 14:49:17;;;;;;;0.15;0.15;;;;;;;;;;1822731;78;26753;-42
2022/10/19 14:51:46;;;;;;;0.20;0.17;;;;;;;;;;1810054;78;26661;-48
2022/10/19 14:54:24;;;;;;;0.10;0.10;;;;;;;;;;1795992;79;26650;-46
2022/10/19 14:56:59;;;;;;;0.20;0.20;;;;;;;;;;1792579;78;26744;-46